Time;durP1;ratioP1;P1;durP2;ratioP2;P2;SDS_P1;SDS_P2;PMS_P1;PMS_P2;Temp;Humidity;BMP_temperature;BMP_pressure;BME280_temperature;BME280_humidity;BME280_pressure;Samples;Min_cycle;Max_cycle;Signal;HPM_P1;HPM_P2
2021/11/15 00:01:53;;;;;;;10.73;6.83;;;8.20;99.90;;;8.86;100.00;98812.81;5062025;28;20452;-84
2021/11/15 00:04:22;;;;;;;9.93;6.87;;;8.30;99.90;;;8.84;100.00;98818.22;5072788;28;20463;-83
2021/11/15 00:06:51;;;;;;;7.70;5.80;;;8.30;99.90;;;8.86;100.00;98816.25;5080142;28;20863;-83
2021/11/15 00:09:21;;;;;;;11.13;6.23;;;8.30;99.90;;;8.86;100.00;98811.03;5066746;28;20482;-83
2021/11/15 00:11:51;;;;;;;8.53;6.60;;;8.30;99.90;;;8.86;100.00;98805.00;5067162;28;20487;-84
2021/11/15 00:14:20;;;;;;;9.03;6.10;;;8.30;99.90;;;8.87;100.00;98806.63;5064930;28;20770;-83
2021/11/15 00:16:49;;;;;;;9.23;6.07;;;8.30;99.90;;;8.88;100.00;98814.31;5059546;28;20806;-84
2021/11/15 00:19:18;;;;;;;13.03;6.30;;;8.30;99.90;;;8.84;100.00;98806.97;5064605;28;20492;-83
2021/11/15 00:21:46;;;;;;;9.03;6.77;;;8.30;99.90;;;8.84;100.00;98794.75;5060844;28;20469;-83
2021/11/15 00:24:15;;;;;;;9.90;6.77;;;8.20;99.90;;;8.84;100.00;98797.34;5068814;28;20464;-83
2021/11/15 00:26:45;;;;;;;11.23;7.50;;;8.10;99.90;;;8.86;100.00;98805.00;5063425;28;20464;-83
2021/11/15 00:29:14;;;;;;;15.63;7.80;;;8.20;99.90;;;8.86;100.00;98797.19;5068281;28;20546;-83
2021/11/15 00:31:44;;;;;;;9.50;7.30;;;8.30;99.90;;;8.86;100.00;98799.78;5064036;28;20464;-83
2021/11/15 00:34:13;;;;;;;7.10;6.00;;;8.20;99.90;;;8.87;100.00;98798.81;5065643;28;20500;-83
2021/11/15 00:36:41;;;;;;;9.40;5.87;;;8.20;99.90;;;8.85;100.00;98798.16;5064950;28;20463;-83
2021/11/15 00:39:10;;;;;;;9.60;6.47;;;8.30;99.90;;;8.87;100.00;98796.22;5067302;28;20541;-83
2021/11/15 00:41:39;;;;;;;8.40;6.10;;;8.30;99.90;;;8.87;100.00;98796.22;5061226;28;20548;-83
2021/11/15 00:44:09;;;;;;;9.07;6.57;;;8.40;99.90;;;8.86;100.00;98789.34;5067776;28;20791;-83
2021/11/15 00:46:38;;;;;;;10.90;6.80;;;8.30;99.90;;;8.83;100.00;98794.88;5065075;28;20492;-83
2021/11/15 00:49:06;;;;;;;9.50;7.27;;;8.20;99.90;;;8.81;100.00;98795.06;5064783;28;20465;-83
2021/11/15 00:51:35;;;;;;;9.27;6.70;;;8.20;99.90;;;8.84;100.00;98796.53;5064379;28;20581;-83
2021/11/15 00:54:04;;;;;;;10.63;7.10;;;8.20;99.90;;;8.85;100.00;98800.78;5067775;28;20503;-83
2021/11/15 00:56:33;;;;;;;10.20;6.90;;;8.20;99.90;;;8.79;100.00;98797.00;5063735;28;20545;-83
2021/11/15 00:59:02;;;;;;;12.10;7.37;;;8.20;99.90;;;8.79;100.00;98804.00;5058435;28;20457;-83
2021/11/15 01:01:32;;;;;;;10.27;7.00;;;8.20;99.90;;;8.80;100.00;98797.81;5064159;28;20880;-83
2021/11/15 01:04:01;;;;;;;11.47;6.97;;;8.20;99.90;;;8.80;100.00;98800.41;5051192;28;20548;-83
2021/11/15 01:06:29;;;;;;;11.07;7.40;;;8.20;99.90;;;8.78;100.00;98795.34;5056702;28;20460;-83
2021/11/15 01:08:58;;;;;;;10.40;6.40;;;8.20;99.90;;;8.75;100.00;98798.28;5064294;28;20526;-83
2021/11/15 01:11:27;;;;;;;11.33;7.13;;;8.20;99.90;;;8.75;100.00;98798.28;5063929;28;20464;-83
2021/11/15 01:13:56;;;;;;;8.70;6.70;;;8.20;99.90;;;8.78;100.00;98799.78;5061511;28;21017;-83
2021/11/15 01:16:25;;;;;;;9.17;7.13;;;8.10;99.90;;;8.79;100.00;98804.81;5060246;28;20525;-83
2021/11/15 01:18:55;;;;;;;9.83;6.63;;;8.20;99.90;;;8.77;100.00;98811.16;5066570;28;20460;-83
2021/11/15 01:21:27;;;;;;;8.87;6.80;;;8.10;99.90;;;8.77;100.00;98800.72;5059518;28;20720;-83
2021/11/15 01:23:58;;;;;;;17.03;7.30;;;8.10;99.90;;;8.76;100.00;98804.31;5067266;28;20444;-83
2021/11/15 01:26:27;;;;;;;11.37;7.80;;;8.20;99.90;;;8.78;100.00;98807.59;5062115;28;20527;-83
2021/11/15 01:28:55;;;;;;;11.60;6.90;;;8.20;99.90;;;8.73;100.00;98799.41;5060652;28;20547;-83
2021/11/15 01:31:24;;;;;;;11.50;7.60;;;8.10;99.90;;;8.74;100.00;98796.66;5064393;28;20464;-83
2021/11/15 01:33:54;;;;;;;9.33;7.33;;;8.20;99.90;;;8.73;100.00;98797.63;5063137;28;20503;-83
2021/11/15 01:36:23;;;;;;;11.17;7.43;;;8.10;99.90;;;8.72;100.00;98797.78;5062587;28;20460;-83
2021/11/15 01:38:52;;;;;;;8.93;6.67;;;8.10;99.90;;;8.71;100.00;98794.34;5063191;28;20968;-83
2021/11/15 01:41:21;;;;;;;11.87;8.33;;;8.10;99.90;;;8.70;100.00;98800.56;5055722;28;20510;-83
2021/11/15 01:43:49;;;;;;;10.60;6.60;;;8.10;99.90;;;8.70;100.00;98802.34;5062706;28;20465;-83
2021/11/15 01:46:19;;;;;;;12.93;7.00;;;8.10;99.90;;;8.69;100.00;98798.09;5063023;28;20492;-83
2021/11/15 01:48:47;;;;;;;11.93;6.70;;;8.10;99.90;;;8.69;100.00;98801.50;5059983;28;20465;-83
2021/11/15 01:51:18;;;;;;;11.63;7.10;;;8.10;99.90;;;8.69;100.00;98804.13;5062338;28;20452;-83
2021/11/15 01:53:46;;;;;;;9.53;7.37;;;8.10;99.90;;;8.67;100.00;98813.09;5067248;28;20499;-83
2021/11/15 01:56:15;;;;;;;10.10;7.10;;;8.10;99.90;;;8.61;100.00;98795.47;5058127;28;20520;-83
2021/11/15 01:58:44;;;;;;;10.83;6.77;;;8.10;99.90;;;8.61;100.00;98805.88;5058831;28;20856;-83
2021/11/15 02:01:13;;;;;;;9.43;7.03;;;8.10;99.90;;;8.61;100.00;98805.88;5054803;28;20526;-83
2021/11/15 02:03:42;;;;;;;14.07;8.90;;;8.10;99.90;;;8.56;100.00;98809.78;5059417;28;20468;-83
2021/11/15 02:06:11;;;;;;;10.20;7.57;;;8.00;99.90;;;8.57;100.00;98808.78;5059936;28;20533;-83
2021/11/15 02:08:42;;;;;;;9.37;7.30;;;8.00;99.90;;;8.58;100.00;98807.81;5065637;28;20960;-83
2021/11/15 02:11:10;;;;;;;10.57;7.63;;;8.00;99.90;;;8.56;100.00;98799.34;5061274;28;20868;-84
2021/11/15 02:13:40;;;;;;;12.17;7.67;;;8.10;99.90;;;8.54;100.00;98796.06;5060026;28;20530;-83
2021/11/15 02:16:09;;;;;;;9.80;6.73;;;8.10;99.90;;;8.57;100.00;98795.75;5066855;28;20467;-83
2021/11/15 02:18:37;;;;;;;12.10;7.77;;;8.00;99.90;;;8.54;100.00;98796.06;5061943;28;20461;-83
2021/11/15 02:21:09;;;;;;;9.57;7.17;;;8.00;99.90;;;8.54;100.00;98785.63;5064226;28;20869;-83
2021/11/15 02:23:42;;;;;;;9.40;6.60;;;8.00;99.90;;;8.54;100.00;98782.22;5068613;28;20811;-84
2021/11/15 02:26:14;;;;;;;11.63;7.50;;;8.10;99.90;;;8.54;100.00;98782.22;5055564;28;20464;-83
2021/11/15 02:28:47;;;;;;;11.10;7.97;;;8.00;99.90;;;8.55;100.00;98786.47;5062465;28;20516;-84
2021/11/15 02:31:22;;;;;;;12.77;7.87;;;8.00;99.90;;;8.51;100.00;98783.34;5060636;28;20469;-83
2021/11/15 02:33:52;;;;;;;12.87;6.83;;;8.00;99.90;;;8.52;100.00;98792.81;5060524;28;20487;-83
2021/11/15 02:36:26;;;;;;;14.27;7.47;;;7.90;99.90;;;8.50;100.00;98781.69;5067039;28;20956;-83
2021/11/15 02:38:55;;;;;;;10.83;7.00;;;7.90;99.90;;;8.53;100.00;98794.44;5064595;28;21003;-83
2021/11/15 02:41:26;;;;;;;9.97;7.20;;;7.90;99.90;;;8.51;100.00;98791.16;5067381;28;21172;-84
2021/11/15 02:43:55;;;;;;;8.87;6.90;;;7.90;99.90;;;8.46;100.00;98780.41;5063417;28;20440;-83
2021/11/15 02:46:24;;;;;;;10.70;7.63;;;7.90;99.90;;;8.46;100.00;98788.22;5060132;28;20476;-83
2021/11/15 02:48:53;;;;;;;15.13;7.67;;;7.90;99.90;;;8.41;100.00;98779.22;5064186;28;20470;-82
2021/11/15 02:51:24;;;;;;;10.00;7.70;;;7.90;99.90;;;8.40;100.00;98780.22;5067324;28;20456;-83
2021/11/15 02:53:53;;;;;;;11.47;8.27;;;7.80;99.90;;;8.45;100.00;98786.56;5078912;28;20917;-83
2021/11/15 02:56:21;;;;;;;11.07;7.97;;;7.90;99.90;;;8.44;100.00;98784.94;5071283;28;20995;-83
2021/11/15 02:58:50;;;;;;;10.20;7.23;;;7.90;99.90;;;8.41;100.00;98787.84;5065136;28;20533;-83
2021/11/15 03:01:22;;;;;;;11.40;7.60;;;7.90;99.90;;;8.41;100.00;98785.25;5069793;28;20848;-83
2021/11/15 03:03:52;;;;;;;10.57;7.93;;;7.90;99.90;;;8.42;100.00;98792.09;5062944;28;20468;-83
2021/11/15 03:06:22;;;;;;;10.63;7.70;;;7.90;99.90;;;8.40;100.00;98782.81;5065108;28;20460;-83
2021/11/15 03:08:51;;;;;;;11.13;7.40;;;7.90;99.90;;;8.37;100.00;98783.09;5066182;28;20517;-83
2021/11/15 03:11:19;;;;;;;12.13;8.00;;;7.90;99.90;;;8.38;100.00;98782.97;5061977;28;20475;-83
2021/11/15 03:13:49;;;;;;;11.40;7.37;;;7.90;99.90;;;8.38;100.00;98782.13;5069770;28;20491;-83
2021/11/15 03:16:18;;;;;;;11.47;7.47;;;7.90;99.90;;;8.33;100.00;98787.81;5061719;28;20464;-82
2021/11/15 03:18:47;;;;;;;12.90;8.77;;;7.80;99.90;;;8.31;100.00;98779.34;5062438;28;20469;-83
2021/11/15 03:21:18;;;;;;;11.33;7.67;;;7.90;99.90;;;8.31;100.00;98778.50;5068520;28;20470;-83
2021/11/15 03:23:52;;;;;;;12.80;8.70;;;7.80;99.90;;;8.31;100.00;98779.34;5068553;28;20474;-83
2021/11/15 03:26:23;;;;;;;12.70;8.17;;;7.80;99.90;;;8.30;100.00;98785.50;5060120;28;20522;-83
2021/11/15 03:28:55;;;;;;;11.97;8.47;;;7.90;99.90;;;8.26;100.00;98786.75;5060611;28;20555;-82
2021/11/15 03:31:27;;;;;;;11.90;8.00;;;7.80;99.90;;;8.25;100.00;98779.09;5058470;28;20987;-83
2021/11/15 03:34:01;;;;;;;11.23;7.90;;;7.80;99.90;;;8.29;100.00;98781.28;5059926;28;20503;-83
2021/11/15 03:36:30;;;;;;;14.77;9.10;;;7.80;99.90;;;8.29;100.00;98770.88;5066100;28;20853;-83
2021/11/15 03:39:01;;;;;;;9.97;7.53;;;7.80;99.90;;;8.31;100.00;98766.31;5071775;28;20447;-83
2021/11/15 03:41:35;;;;;;;12.80;8.50;;;7.80;99.90;;;8.27;100.00;98766.72;5069159;28;20468;-83
2021/11/15 03:44:08;;;;;;;12.60;8.93;;;7.70;99.90;;;8.29;100.00;98770.03;5066560;28;20511;-82
2021/11/15 03:46:38;;;;;;;12.43;7.93;;;7.70;99.90;;;8.33;100.00;98766.97;5065051;28;20483;-83
2021/11/15 03:49:07;;;;;;;14.50;8.00;;;7.70;99.90;;;8.34;100.00;98773.81;5068286;28;20464;-83
2021/11/15 03:51:35;;;;;;;13.63;7.73;;;7.80;99.90;;;8.33;100.00;98768.78;5067942;28;20482;-82
2021/11/15 03:54:05;;;;;;;13.90;9.40;;;7.70;99.90;;;8.32;100.00;98775.75;5066865;28;20488;-83
2021/11/15 03:56:34;;;;;;;10.87;7.40;;;7.70;99.90;;;8.31;100.00;98771.53;5061008;28;20972;-83
2021/11/15 03:59:06;;;;;;;17.00;9.63;;;7.80;99.90;;;8.29;100.00;98765.66;5069298;28;20468;-83
2021/11/15 04:01:35;;;;;;;9.73;7.07;;;7.80;99.90;;;8.28;100.00;98769.22;5065528;28;20460;-83
2021/11/15 04:04:07;;;;;;;12.93;8.40;;;7.70;99.90;;;8.28;100.00;98764.00;5071246;28;20468;-83
2021/11/15 04:06:39;;;;;;;12.17;8.10;;;7.70;99.90;;;8.29;100.00;98768.25;5056896;28;20800;-83
2021/11/15 04:09:11;;;;;;;14.20;8.33;;;7.70;99.90;;;8.28;100.00;98766.63;5063389;28;20517;-83
2021/11/15 04:11:40;;;;;;;12.00;7.57;;;7.70;99.90;;;8.28;100.00;98764.00;5062855;28;20547;-83
2021/11/15 04:14:13;;;;;;;11.63;8.13;;;7.70;99.90;;;8.25;100.00;98773.91;5069053;28;20529;-83
2021/11/15 04:16:44;;;;;;;13.87;8.57;;;7.60;99.90;;;8.28;100.00;98758.81;5061932;28;20468;-83
2021/11/15 04:19:18;;;;;;;11.27;8.70;;;7.70;99.90;;;8.27;100.00;98767.56;5064581;28;20842;-83
2021/11/15 04:21:50;;;;;;;14.73;9.43;;;7.70;99.90;;;8.28;100.00;98763.16;5055768;28;20530;-83
2021/11/15 04:24:20;;;;;;;12.10;8.30;;;7.70;99.90;;;8.31;100.00;98765.47;5068482;28;21018;-83
2021/11/15 04:26:49;;;;;;;15.63;9.80;;;7.70;99.90;;;8.36;100.00;98764.06;5055683;28;21098;-83
2021/11/15 04:29:18;;;;;;;20.80;8.43;;;7.80;99.90;;;8.31;100.00;98766.31;5061527;28;20460;-83
2021/11/15 04:31:46;;;;;;;14.40;9.30;;;7.80;99.90;;;8.25;100.00;98766.09;5055398;28;20468;-83
2021/11/15 04:34:15;;;;;;;11.40;8.20;;;7.70;99.90;;;8.27;100.00;98769.34;5064646;28;20483;-83
2021/11/15 04:36:44;;;;;;;11.47;8.63;;;7.70;99.90;;;8.25;100.00;98761.69;5055721;28;20460;-83
2021/11/15 04:39:13;;;;;;;15.43;8.57;;;7.60;99.90;;;8.21;100.00;98759.53;5051192;28;20466;-84
2021/11/15 04:41:43;;;;;;;16.60;9.20;;;7.60;99.90;;;8.27;100.00;98764.94;5057795;28;20467;-83
2021/11/15 04:44:12;;;;;;;16.53;8.20;;;7.60;99.90;;;8.29;100.00;98764.84;5077561;28;20444;-83
2021/11/15 04:46:40;;;;;;;12.53;8.57;;;7.60;99.90;;;8.24;100.00;98756.63;5057078;28;20488;-83
2021/11/15 04:49:10;;;;;;;37.37;19.70;;;7.60;99.90;;;8.22;100.00;98755.97;5062405;28;20456;-83
2021/11/15 04:51:38;;;;;;;15.93;8.93;;;7.60;99.90;;;8.25;100.00;98759.09;5059157;28;21029;-83
2021/11/15 04:54:08;;;;;;;11.90;8.70;;;7.60;99.90;;;8.26;100.00;98755.47;5066984;28;20928;-83
2021/11/15 04:56:36;;;;;;;12.13;8.63;;;7.60;99.90;;;8.30;100.00;98756.84;5064367;28;20976;-83
2021/11/15 04:59:06;;;;;;;14.63;8.60;;;7.70;99.90;;;8.33;100.00;98759.13;5062524;28;20467;-83
2021/11/15 05:01:37;;;;;;;14.80;8.80;;;7.70;99.90;;;8.30;100.00;98762.06;5061930;28;20468;-83
2021/11/15 05:04:06;;;;;;;13.90;8.00;;;7.70;99.90;;;8.24;100.00;98748.81;5065634;28;20448;-84
2021/11/15 05:06:35;;;;;;;17.60;9.17;;;7.60;99.90;;;8.26;100.00;98752.88;5067532;28;20464;-84
2021/11/15 05:09:04;;;;;;;14.33;8.70;;;7.60;99.90;;;8.21;100.00;98747.34;5061051;28;20484;-83
2021/11/15 05:11:33;;;;;;;13.07;9.03;;;7.60;99.90;;;8.25;100.00;98748.66;5059524;28;20449;-83
2021/11/15 05:14:02;;;;;;;14.40;9.50;;;7.70;99.90;;;8.19;100.00;98744.03;5067285;28;20483;-83
2021/11/15 05:16:33;;;;;;;14.60;9.20;;;7.60;99.90;;;8.20;100.00;98747.47;5064138;28;20460;-83
2021/11/15 05:19:02;;;;;;;13.70;8.63;;;7.60;99.90;;;8.21;100.00;98736.91;5064022;28;20456;-83
2021/11/15 05:21:31;;;;;;;13.50;8.83;;;7.70;99.90;;;8.20;100.00;98745.69;5060549;28;20449;-83
2021/11/15 05:24:00;;;;;;;16.80;9.37;;;7.70;99.90;;;8.20;100.00;98742.25;5056155;28;20478;-83
2021/11/15 05:26:30;;;;;;;16.90;9.47;;;7.60;99.90;;;8.18;100.00;98742.44;5065729;28;20816;-83
2021/11/15 05:28:58;;;;;;;12.23;8.23;;;7.60;99.90;;;8.21;100.00;98741.31;5053095;28;20460;-83
2021/11/15 05:31:28;;;;;;;11.50;8.50;;;7.60;99.90;;;8.18;100.00;98742.44;5060634;28;20521;-83
2021/11/15 05:33:58;;;;;;;12.93;7.80;;;7.60;99.90;;;8.23;100.00;98744.56;5053409;28;21037;-83
2021/11/15 05:36:26;;;;;;;12.77;9.20;;;7.70;99.90;;;8.22;100.00;98742.94;5059423;28;21001;-83
2021/11/15 05:38:55;;;;;;;16.40;9.83;;;7.60;99.90;;;8.25;100.00;98743.44;5069136;28;20972;-83
2021/11/15 05:41:24;;;;;;;12.47;7.30;;;7.60;99.90;;;8.21;100.00;98751.72;5062062;28;20547;-83
2021/11/15 05:43:52;;;;;;;12.60;8.33;;;7.60;99.90;;;8.26;100.00;98757.31;5069233;28;20455;-83
2021/11/15 05:46:21;;;;;;;13.40;8.80;;;7.60;99.90;;;8.23;100.00;98752.38;5066515;28;20935;-83
2021/11/15 05:48:50;;;;;;;12.20;8.30;;;7.60;99.90;;;8.24;100.00;98761.84;5068953;28;20452;-84
2021/11/15 05:51:20;;;;;;;12.97;8.13;;;7.70;99.90;;;8.22;100.00;98758.56;5064007;28;20459;-83
2021/11/15 05:53:49;;;;;;;12.70;7.73;;;7.80;99.90;;;8.19;100.00;98759.69;5062109;28;20857;-84
2021/11/15 05:56:17;;;;;;;16.63;9.93;;;7.70;99.90;;;8.19;100.00;98775.31;5066864;28;21045;-83
2021/11/15 05:58:46;;;;;;;13.10;7.70;;;7.70;99.90;;;8.20;100.00;98761.31;5059894;28;20513;-83
2021/11/15 06:01:14;;;;;;;14.97;7.80;;;7.70;99.90;;;8.21;100.00;98762.13;5060058;28;20464;-83
2021/11/15 06:03:45;;;;;;;15.07;9.07;;;7.70;99.90;;;8.16;100.00;98769.63;5061442;28;20482;-83
2021/11/15 06:06:14;;;;;;;10.93;7.97;;;7.60;99.90;;;8.15;100.00;98758.38;5062591;28;20924;-81
2021/11/15 06:08:44;;;;;;;12.17;7.93;;;7.60;99.90;;;8.16;100.00;98762.59;5067181;28;20462;-80
2021/11/15 06:11:13;;;;;;;10.47;7.27;;;7.60;99.90;;;8.18;100.00;98758.06;5065085;28;20912;-81
2021/11/15 06:13:41;;;;;;;13.83;7.80;;;7.60;99.90;;;8.19;100.00;98757.06;5064476;28;20506;-80
2021/11/15 06:16:10;;;;;;;10.30;7.40;;;7.70;99.90;;;8.22;100.00;98756.78;5066550;28;20500;-80
2021/11/15 06:18:40;;;;;;;11.33;7.13;;;7.70;99.90;;;8.26;100.00;98762.50;5066224;28;20449;-78
2021/11/15 06:21:09;;;;;;;10.70;7.90;;;7.70;99.90;;;8.26;100.00;98760.69;5064649;28;20844;-79
2021/11/15 06:23:38;;;;;;;13.00;8.40;;;7.80;99.90;;;8.28;100.00;98771.81;5062076;28;20460;-80
2021/11/15 06:26:08;;;;;;;11.67;8.23;;;7.80;99.90;;;8.29;100.00;98768.25;5065219;28;20440;-80
2021/11/15 06:28:38;;;;;;;10.43;7.70;;;7.90;99.90;;;8.28;100.00;98765.75;5068884;28;20452;-80
2021/11/15 06:31:11;;;;;;;14.33;7.97;;;7.80;99.90;;;8.26;100.00;98771.13;5069016;28;20514;-80
2021/11/15 06:33:40;;;;;;;13.13;7.70;;;7.80;99.90;;;8.28;100.00;98774.44;5065645;28;21037;-80
2021/11/15 06:36:09;;;;;;;10.43;7.70;;;7.80;99.90;;;8.32;100.00;98770.56;5067526;28;20496;-79
2021/11/15 06:38:40;;;;;;;13.80;7.90;;;7.90;99.90;;;8.34;100.00;98773.00;5064028;28;20591;-80
2021/11/15 06:41:10;;;;;;;12.37;8.07;;;7.90;99.90;;;8.33;100.00;98777.38;5066733;28;20924;-80
2021/11/15 06:43:39;;;;;;;10.80;7.23;;;7.90;99.90;;;8.31;100.00;98770.69;5069365;28;20444;-79
2021/11/15 06:46:07;;;;;;;15.60;9.90;;;7.90;99.90;;;8.30;100.00;98776.88;5067228;28;20532;-79
2021/11/15 06:48:41;;;;;;;10.70;7.47;;;7.90;99.90;;;8.31;100.00;98778.50;5069801;28;20505;-78
2021/11/15 06:51:20;;;;;;;11.37;7.97;;;7.90;99.90;;;8.33;100.00;98781.81;5069636;28;20795;-79
2021/11/15 06:53:48;;;;;;;10.70;7.47;;;7.90;99.90;;;8.29;100.00;98783.91;5069493;28;20456;-79
2021/11/15 06:56:18;;;;;;;15.13;8.10;;;7.80;99.90;;;8.30;100.00;98790.72;5069084;28;20557;-79
2021/11/15 06:58:47;;;;;;;11.43;8.33;;;7.80;99.90;;;8.30;100.00;98784.69;5069790;28;20497;-79
2021/11/15 07:01:16;;;;;;;12.73;8.10;;;7.80;99.90;;;8.31;100.00;98779.34;5066859;28;20444;-79
2021/11/15 07:03:44;;;;;;;12.27;7.73;;;7.80;99.90;;;8.30;100.00;98782.91;5072678;28;20455;-78
2021/11/15 07:06:13;;;;;;;11.30;7.97;;;7.80;99.90;;;8.29;100.00;98786.50;5069045;28;20504;-79
2021/11/15 07:08:48;;;;;;;10.90;7.20;;;7.80;99.90;;;8.33;100.00;98795.63;5066440;28;20669;-79
2021/11/15 07:11:18;;;;;;;15.67;7.53;;;7.80;99.90;;;8.33;100.00;98790.41;5067370;28;20477;-79
2021/11/15 07:13:47;;;;;;;13.37;8.07;;;7.90;99.90;;;8.31;100.00;98794.16;5071587;28;20444;-79
2021/11/15 07:16:16;;;;;;;14.73;8.10;;;7.80;99.90;;;8.32;100.00;98786.19;5072821;28;20914;-79
2021/11/15 07:18:46;;;;;;;11.50;7.40;;;7.80;99.90;;;8.32;100.00;98795.78;5072302;28;21047;-79
2021/11/15 07:21:15;;;;;;;11.00;7.30;;;7.80;99.90;;;8.30;100.00;98797.72;5071864;28;21002;-79
2021/11/15 07:23:43;;;;;;;11.23;7.50;;;7.80;99.90;;;8.29;100.00;98802.13;5071151;28;20457;-79
2021/11/15 07:26:12;;;;;;;14.63;6.70;;;7.80;99.90;;;8.31;100.00;98794.97;5066858;28;20445;-79
2021/11/15 07:28:43;;;;;;;13.03;8.33;;;7.80;99.90;;;8.33;100.00;98802.66;5071095;28;20436;-79
2021/11/15 07:31:11;;;;;;;13.73;8.43;;;7.90;99.90;;;8.32;100.00;98806.22;5072789;28;20483;-79
2021/11/15 07:33:40;;;;;;;13.60;8.83;;;7.80;99.90;;;8.30;100.00;98801.13;5071822;28;20488;-79
2021/11/15 07:36:09;;;;;;;11.43;7.03;;;7.80;99.90;;;8.28;100.00;98800.50;5072240;28;20507;-79
2021/11/15 07:38:38;;;;;;;10.23;7.10;;;7.80;99.90;;;8.30;100.00;98805.53;5072437;28;20502;-79
2021/11/15 07:41:08;;;;;;;15.30;9.63;;;7.80;99.90;;;8.32;100.00;98807.03;5064450;28;20969;-78
2021/11/15 07:43:37;;;;;;;11.07;7.20;;;7.80;99.90;;;8.34;100.00;98807.69;5070261;28;20443;-79
2021/11/15 07:46:07;;;;;;;11.40;7.00;;;7.90;99.90;;;8.31;100.00;98810.59;5065985;28;20545;-79
2021/11/15 07:48:36;;;;;;;10.47;7.10;;;7.80;99.90;;;8.30;100.00;98808.97;5064459;28;20451;-78
2021/11/15 07:51:05;;;;;;;11.30;6.93;;;7.80;99.90;;;8.29;100.00;98804.75;5071512;28;20529;-79
2021/11/15 07:53:37;;;;;;;12.40;7.60;;;7.80;99.90;;;8.29;100.00;98812.56;5071935;28;20530;-79
2021/11/15 07:56:07;;;;;;;13.00;8.30;;;7.80;99.90;;;8.32;100.00;98812.25;5067938;28;20496;-78
2021/11/15 07:58:37;;;;;;;11.70;7.40;;;7.80;99.90;;;8.33;100.00;98818.28;5068158;28;20444;-78
2021/11/15 08:01:08;;;;;;;11.60;7.50;;;7.80;99.90;;;8.34;100.00;98805.06;5070342;28;20447;-79
2021/11/15 08:03:41;;;;;;;11.03;8.00;;;7.90;99.90;;;8.33;100.00;98810.47;5071521;28;20437;-79
2021/11/15 08:06:11;;;;;;;10.60;7.20;;;7.90;99.90;;;8.33;100.00;98808.66;5071107;28;20952;-79
2021/11/15 08:08:39;;;;;;;10.53;7.10;;;7.80;99.90;;;8.28;100.00;98800.50;5071211;28;20498;-78
2021/11/15 08:11:10;;;;;;;11.13;8.00;;;7.80;99.90;;;8.29;100.00;98811.72;5066815;28;20536;-79
2021/11/15 08:13:40;;;;;;;11.63;7.27;;;7.80;99.90;;;8.29;100.00;98809.94;5070384;28;20445;-79
2021/11/15 08:16:10;;;;;;;9.80;6.40;;;7.80;99.90;;;8.30;100.00;98801.13;5059818;28;20976;-79
2021/11/15 08:18:40;;;;;;;11.47;7.00;;;7.90;99.90;;;8.29;100.00;98807.34;5060907;28;20436;-79
2021/11/15 08:21:12;;;;;;;11.27;7.67;;;7.90;99.90;;;8.32;100.00;98806.22;5069350;28;20464;-79
2021/11/15 08:23:47;;;;;;;10.00;6.70;;;7.90;99.90;;;8.27;100.00;98803.19;5066725;28;20813;-79
2021/11/15 08:26:40;;;;;;;12.17;7.07;;;7.90;99.90;;;8.26;100.00;98802.38;5070952;28;20443;-79
2021/11/15 08:29:25;;;;;;;12.10;7.47;;;7.80;99.90;;;8.28;100.00;98795.28;5064901;28;20448;-79
2021/11/15 08:32:00;;;;;;;10.20;6.73;;;7.80;99.90;;;8.28;100.00;98803.09;5065631;28;20955;-79
2021/11/15 08:34:29;;;;;;;9.83;6.80;;;7.70;99.90;;;8.32;100.00;98801.81;5071056;28;20461;-79
2021/11/15 08:36:57;;;;;;;12.67;8.00;;;7.80;99.90;;;8.31;100.00;98800.19;5070678;28;20553;-78
2021/11/15 08:39:29;;;;;;;15.40;8.13;;;7.80;99.90;;;8.33;100.00;98793.00;5063479;28;20456;-78
2021/11/15 08:42:02;;;;;;;16.37;7.20;;;7.80;99.90;;;8.31;100.00;98805.38;5069677;28;20509;-79
2021/11/15 08:44:32;;;;;;;12.33;6.80;;;7.80;99.90;;;8.31;100.00;98804.56;5068148;28;20460;-79
2021/11/15 08:47:02;;;;;;;9.60;6.60;;;7.80;99.90;;;8.29;100.00;98802.13;5070438;28;21151;-78
2021/11/15 08:49:33;;;;;;;11.87;7.30;;;7.80;99.90;;;8.27;100.00;98804.03;5067903;28;20452;-79
2021/11/15 08:52:04;;;;;;;13.27;7.20;;;7.80;99.90;;;8.28;100.00;98808.31;5070421;28;21029;-79
2021/11/15 08:54:36;;;;;;;11.20;6.70;;;7.80;99.90;;;8.30;100.00;98802.94;5068845;28;20518;-78
2021/11/15 08:57:08;;;;;;;11.87;6.97;;;7.80;99.90;;;8.30;100.00;98798.53;5070480;28;20545;-78
2021/11/15 08:59:45;;;;;;;12.30;7.30;;;7.80;99.90;;;8.33;100.00;98803.44;5068478;28;20526;-79
2021/11/15 09:02:16;;;;;;;12.97;7.00;;;7.80;99.90;;;8.33;100.00;98798.22;5068595;28;20464;-78
2021/11/15 09:04:45;;;;;;;12.00;7.67;;;7.90;99.90;;;8.32;100.00;98794.00;5063107;28;20949;-78
2021/11/15 09:07:13;;;;;;;10.90;6.80;;;7.80;99.90;;;8.33;100.00;98793.00;5065411;28;20874;-78
2021/11/15 09:09:42;;;;;;;14.70;8.63;;;7.80;99.90;;;8.33;100.00;98793.00;5069138;28;20444;-78
2021/11/15 09:12:12;;;;;;;11.70;7.23;;;7.80;99.90;;;8.33;100.00;98795.63;5069849;28;20433;-78
2021/11/15 09:14:40;;;;;;;13.73;7.87;;;7.80;99.90;;;8.33;100.00;98792.22;5068575;28;20440;-79
2021/11/15 09:17:09;;;;;;;10.33;6.53;;;7.80;99.90;;;8.32;100.00;98798.41;5066218;28;20487;-78
2021/11/15 09:19:39;;;;;;;11.50;7.60;;;7.80;99.90;;;8.36;100.00;98797.13;5070858;28;20452;-78
2021/11/15 09:22:08;;;;;;;9.50;7.70;;;7.80;99.90;;;8.38;100.00;98797.78;5063955;28;20448;-79
2021/11/15 09:24:37;;;;;;;14.33;7.40;;;7.80;99.90;;;8.39;100.00;98797.63;5065678;28;20452;-78
2021/11/15 09:27:09;;;;;;;9.67;6.70;;;7.90;99.90;;;8.37;100.00;98798.72;5069870;28;20448;-79
2021/11/15 09:29:37;;;;;;;7.90;6.40;;;7.90;99.90;;;8.37;100.00;98801.34;5068336;28;20781;-78
2021/11/15 09:32:08;;;;;;;11.00;6.80;;;7.90;99.90;;;8.38;100.00;98806.41;5069620;28;20467;-78
2021/11/15 09:34:40;;;;;;;15.37;7.87;;;7.90;99.90;;;8.40;100.00;98807.06;5069641;28;20440;-78
2021/11/15 09:37:09;;;;;;;13.53;6.73;;;7.90;99.90;;;8.41;100.00;98800.88;5069326;28;21020;-78
2021/11/15 09:39:40;;;;;;;11.27;6.90;;;7.90;99.90;;;8.39;100.00;98802.84;5064196;28;20491;-78
2021/11/15 09:42:09;;;;;;;10.30;6.60;;;7.90;99.90;;;8.39;100.00;98802.84;5062609;28;20447;-78
2021/11/15 09:44:44;;;;;;;11.00;6.93;;;7.90;99.90;;;8.37;100.00;98807.38;5063794;28;20447;-78
2021/11/15 09:47:15;;;;;;;9.67;6.47;;;7.90;99.90;;;8.38;100.00;98810.78;5069266;28;20547;-79
2021/11/15 09:49:45;;;;;;;10.70;7.23;;;7.90;99.90;;;8.43;100.00;98806.78;5069450;28;20493;-79
2021/11/15 09:52:15;;;;;;;15.20;8.17;;;7.90;99.90;;;8.46;100.00;98809.06;5065602;28;20937;-78
2021/11/15 09:54:46;;;;;;;12.23;7.50;;;7.90;99.90;;;8.48;100.00;98809.72;5069291;28;20484;-78
2021/11/15 09:57:38;;;;;;;10.70;7.17;;;8.00;99.90;;;8.47;100.00;98810.69;5068126;28;20487;-78
2021/11/15 10:00:11;;;;;;;12.17;6.83;;;8.00;99.90;;;8.45;100.00;98806.59;5065457;28;20522;-78
2021/11/15 10:02:40;;;;;;;14.83;7.87;;;8.00;99.90;;;8.44;100.00;98810.16;5069257;28;20993;-79
2021/11/15 10:05:11;;;;;;;13.00;6.20;;;7.90;99.90;;;8.45;100.00;98822.25;5069033;28;20450;-79
2021/11/15 10:07:44;;;;;;;9.20;6.60;;;7.90;99.90;;;8.43;100.00;98819.00;5069200;28;20445;-79
2021/11/15 10:10:39;;;;;;;8.77;6.33;;;7.90;99.90;;;8.40;100.00;98817.47;5061835;28;20490;-79
2021/11/15 10:13:23;;;;;;;12.27;8.17;;;8.00;99.90;;;8.38;100.00;98816.84;5062138;28;20456;-78
2021/11/15 10:16:01;;;;;;;10.77;6.90;;;7.90;99.90;;;8.38;100.00;98811.63;5069521;28;20451;-78
2021/11/15 10:18:51;;;;;;;13.10;6.30;;;7.90;99.90;;;8.40;100.00;98817.47;5069868;28;20487;-79
2021/11/15 10:21:29;;;;;;;11.90;7.33;;;8.00;99.90;;;8.40;100.00;98809.66;5064599;28;20445;-78
2021/11/15 10:24:04;;;;;;;9.13;6.57;;;7.90;99.90;;;8.42;100.00;98801.72;5068993;28;20456;-78
2021/11/15 10:26:38;;;;;;;11.17;7.10;;;7.90;99.90;;;8.42;100.00;98792.09;5066630;28;20509;-79
2021/11/15 10:29:14;;;;;;;11.70;7.40;;;7.90;99.90;;;8.42;100.00;98797.31;5060664;28;20529;-78
2021/11/15 10:31:48;;;;;;;10.07;6.33;;;7.90;99.90;;;8.43;100.00;98803.34;5057167;28;20463;-78
2021/11/15 10:34:25;;;;;;;14.53;7.13;;;8.00;99.90;;;8.40;100.00;98796.63;5068813;28;20873;-78